sensor_id;sensor_type;location;lat;lon;timestamp;P1;durP1;ratioP1;P2;durP2;ratioP2
2610;SDS011;5612;51.134;17.058;2024-02-26T00:01:12;40.40;;;34.37;;
2610;SDS011;5612;51.134;17.058;2024-02-26T00:03:41;45.47;;;35.57;;
2610;SDS011;5612;51.134;17.058;2024-02-26T00:06:13;44.50;;;35.93;;
2610;SDS011;5612;51.134;17.058;2024-02-26T00:08:42;46.00;;;37.60;;
2610;SDS011;5612;51.134;17.058;2024-02-26T00:11:11;44.87;;;35.87;;
2610;SDS011;5612;51.134;17.058;2024-02-26T00:13:40;39.60;;;33.43;;
2610;SDS011;5612;51.134;17.058;2024-02-26T00:16:08;45.70;;;35.23;;
2610;SDS011;5612;51.134;17.058;2024-02-26T00:18:37;46.67;;;35.40;;
2610;SDS011;5612;51.134;17.058;2024-02-26T00:21:06;56.20;;;37.33;;
2610;SDS011;5612;51.134;17.058;2024-02-26T00:23:36;49.30;;;38.47;;
2610;SDS011;5612;51.134;17.058;2024-02-26T00:26:05;42.60;;;35.60;;
2610;SDS011;5612;51.134;17.058;2024-02-26T00:28:34;47.07;;;34.57;;
2610;SDS011;5612;51.134;17.058;2024-02-26T00:31:03;44.80;;;36.07;;
2610;SDS011;5612;51.134;17.058;2024-02-26T00:33:31;43.10;;;34.00;;
2610;SDS011;5612;51.134;17.058;2024-02-26T00:36:00;47.43;;;34.77;;
2610;SDS011;5612;51.134;17.058;2024-02-26T00:38:29;48.40;;;36.07;;
2610;SDS011;5612;51.134;17.058;2024-02-26T00:40:59;51.30;;;36.70;;
2610;SDS011;5612;51.134;17.058;2024-02-26T00:43:28;47.07;;;34.90;;
2610;SDS011;5612;51.134;17.058;2024-02-26T00:45:57;48.20;;;34.57;;
2610;SDS011;5612;51.134;17.058;2024-02-26T00:48:25;46.47;;;38.53;;
2610;SDS011;5612;51.134;17.058;2024-02-26T00:50:54;44.30;;;34.27;;
2610;SDS011;5612;51.134;17.058;2024-02-26T00:53:23;44.00;;;37.17;;
2610;SDS011;5612;51.134;17.058;2024-02-26T00:55:52;44.03;;;34.40;;
2610;SDS011;5612;51.134;17.058;2024-02-26T00:58:22;36.67;;;32.57;;
2610;SDS011;5612;51.134;17.058;2024-02-26T01:00:51;38.90;;;27.87;;
2610;SDS011;5612;51.134;17.058;2024-02-26T01:03:20;39.60;;;26.90;;
2610;SDS011;5612;51.134;17.058;2024-02-26T01:05:48;41.10;;;29.80;;
2610;SDS011;5612;51.134;17.058;2024-02-26T01:08:22;37.73;;;26.50;;
2610;SDS011;5612;51.134;17.058;2024-02-26T01:10:51;31.33;;;25.77;;
2610;SDS011;5612;51.134;17.058;2024-02-26T01:13:26;34.80;;;27.30;;
2610;SDS011;5612;51.134;17.058;2024-02-26T01:15:55;35.07;;;28.13;;
2610;SDS011;5612;51.134;17.058;2024-02-26T01:18:23;33.37;;;25.80;;
2610;SDS011;5612;51.134;17.058;2024-02-26T01:20:52;34.47;;;27.20;;
2610;SDS011;5612;51.134;17.058;2024-02-26T01:23:21;38.90;;;25.43;;
2610;SDS011;5612;51.134;17.058;2024-02-26T01:25:50;33.90;;;25.90;;
2610;SDS011;5612;51.134;17.058;2024-02-26T01:28:18;27.50;;;23.43;;
2610;SDS011;5612;51.134;17.058;2024-02-26T01:30:49;32.90;;;26.10;;
2610;SDS011;5612;51.134;17.058;2024-02-26T01:33:18;35.47;;;26.27;;
2610;SDS011;5612;51.134;17.058;2024-02-26T01:35:47;32.60;;;25.10;;
2610;SDS011;5612;51.134;17.058;2024-02-26T01:38:15;32.50;;;24.50;;
2610;SDS011;5612;51.134;17.058;2024-02-26T01:40:44;29.37;;;24.27;;
2610;SDS011;5612;51.134;17.058;2024-02-26T01:43:13;27.90;;;22.63;;
2610;SDS011;5612;51.134;17.058;2024-02-26T01:45:41;31.57;;;23.90;;
2610;SDS011;5612;51.134;17.058;2024-02-26T01:48:11;27.30;;;23.23;;
2610;SDS011;5612;51.134;17.058;2024-02-26T01:50:41;30.87;;;24.60;;
2610;SDS011;5612;51.134;17.058;2024-02-26T01:53:10;29.47;;;22.10;;
2610;SDS011;5612;51.134;17.058;2024-02-26T01:55:39;28.10;;;22.60;;
2610;SDS011;5612;51.134;17.058;2024-02-26T01:58:08;25.67;;;21.70;;
2610;SDS011;5612;51.134;17.058;2024-02-26T02:00:37;28.43;;;23.67;;
2610;SDS011;5612;51.134;17.058;2024-02-26T02:03:07;32.70;;;23.17;;
2610;SDS011;5612;51.134;17.058;2024-02-26T02:05:37;27.57;;;23.13;;
2610;SDS011;5612;51.134;17.058;2024-02-26T02:08:09;32.17;;;24.97;;
2610;SDS011;5612;51.134;17.058;2024-02-26T02:10:39;30.53;;;24.77;;
2610;SDS011;5612;51.134;17.058;2024-02-26T02:13:08;28.77;;;24.20;;
2610;SDS011;5612;51.134;17.058;2024-02-26T02:15:37;36.13;;;24.27;;
2610;SDS011;5612;51.134;17.058;2024-02-26T02:18:06;33.30;;;24.67;;
2610;SDS011;5612;51.134;17.058;2024-02-26T02:20:36;32.50;;;25.77;;
2610;SDS011;5612;51.134;17.058;2024-02-26T02:23:05;31.67;;;24.40;;
2610;SDS011;5612;51.134;17.058;2024-02-26T02:25:34;28.83;;;25.33;;
2610;SDS011;5612;51.134;17.058;2024-02-26T02:28:03;32.50;;;28.43;;
2610;SDS011;5612;51.134;17.058;2024-02-26T02:30:32;29.83;;;25.80;;
2610;SDS011;5612;51.134;17.058;2024-02-26T02:33:02;33.70;;;27.93;;
2610;SDS011;5612;51.134;17.058;2024-02-26T02:35:32;33.67;;;27.73;;
2610;SDS011;5612;51.134;17.058;2024-02-26T02:38:02;36.40;;;28.37;;
2610;SDS011;5612;51.134;17.058;2024-02-26T02:40:31;32.87;;;27.27;;
2610;SDS011;5612;51.134;17.058;2024-02-26T02:43:00;34.47;;;26.53;;
2610;SDS011;5612;51.134;17.058;2024-02-26T02:45:29;42.53;;;29.93;;
2610;SDS011;5612;51.134;17.058;2024-02-26T02:47:57;36.20;;;29.83;;
2610;SDS011;5612;51.134;17.058;2024-02-26T02:50:26;33.77;;;28.50;;
2610;SDS011;5612;51.134;17.058;2024-02-26T02:52:55;38.20;;;28.43;;
2610;SDS011;5612;51.134;17.058;2024-02-26T02:55:25;40.10;;;27.57;;
2610;SDS011;5612;51.134;17.058;2024-02-26T02:57:54;35.33;;;26.60;;
2610;SDS011;5612;51.134;17.058;2024-02-26T03:00:23;31.93;;;26.60;;
2610;SDS011;5612;51.134;17.058;2024-02-26T03:02:52;31.13;;;26.40;;
2610;SDS011;5612;51.134;17.058;2024-02-26T03:05:21;35.90;;;27.10;;
2610;SDS011;5612;51.134;17.058;2024-02-26T03:07:49;33.00;;;26.30;;
2610;SDS011;5612;51.134;17.058;2024-02-26T03:10:19;34.53;;;26.33;;
2610;SDS011;5612;51.134;17.058;2024-02-26T03:12:49;34.40;;;25.70;;
2610;SDS011;5612;51.134;17.058;2024-02-26T03:15:18;38.33;;;27.27;;
2610;SDS011;5612;51.134;17.058;2024-02-26T03:17:46;33.17;;;27.50;;
2610;SDS011;5612;51.134;17.058;2024-02-26T03:20:15;35.13;;;27.07;;
2610;SDS011;5612;51.134;17.058;2024-02-26T03:22:46;33.17;;;24.97;;
2610;SDS011;5612;51.134;17.058;2024-02-26T03:25:14;28.30;;;24.90;;
2610;SDS011;5612;51.134;17.058;2024-02-26T03:27:43;33.97;;;27.20;;
2610;SDS011;5612;51.134;17.058;2024-02-26T03:30:13;34.07;;;25.60;;
2610;SDS011;5612;51.134;17.058;2024-02-26T03:32:42;30.40;;;24.13;;
2610;SDS011;5612;51.134;17.058;2024-02-26T03:35:11;36.50;;;26.07;;
2610;SDS011;5612;51.134;17.058;2024-02-26T03:37:40;32.37;;;24.93;;
2610;SDS011;5612;51.134;17.058;2024-02-26T03:40:09;29.57;;;23.40;;
2610;SDS011;5612;51.134;17.058;2024-02-26T03:42:39;33.23;;;26.20;;
2610;SDS011;5612;51.134;17.058;2024-02-26T03:45:08;31.10;;;24.60;;
2610;SDS011;5612;51.134;17.058;2024-02-26T03:47:39;28.83;;;22.63;;
2610;SDS011;5612;51.134;17.058;2024-02-26T03:50:08;28.30;;;23.33;;
2610;SDS011;5612;51.134;17.058;2024-02-26T03:52:37;28.87;;;20.53;;
2610;SDS011;5612;51.134;17.058;2024-02-26T03:55:06;27.87;;;21.90;;
2610;SDS011;5612;51.134;17.058;2024-02-26T03:57:36;32.70;;;23.30;;
2610;SDS011;5612;51.134;17.058;2024-02-26T04:00:05;28.93;;;22.37;;
2610;SDS011;5612;51.134;17.058;2024-02-26T04:02:35;28.13;;;22.30;;
2610;SDS011;5612;51.134;17.058;2024-02-26T04:05:08;29.80;;;23.23;;
2610;SDS011;5612;51.134;17.058;2024-02-26T04:07:38;27.33;;;24.20;;
2610;SDS011;5612;51.134;17.058;2024-02-26T04:10:10;28.90;;;22.20;;
2610;SDS011;5612;51.134;17.058;2024-02-26T04:12:39;29.90;;;23.60;;
2610;SDS011;5612;51.134;17.058;2024-02-26T04:15:08;28.00;;;22.30;;
2610;SDS011;5612;51.134;17.058;2024-02-26T04:17:38;25.90;;;21.47;;
2610;SDS011;5612;51.134;17.058;2024-02-26T04:20:12;26.07;;;22.00;;
2610;SDS011;5612;51.134;17.058;2024-02-26T04:22:42;28.23;;;22.63;;
2610;SDS011;5612;51.134;17.058;2024-02-26T04:25:11;29.70;;;22.03;;
2610;SDS011;5612;51.134;17.058;2024-02-26T04:27:40;28.27;;;21.27;;
2610;SDS011;5612;51.134;17.058;2024-02-26T04:30:09;29.87;;;25.30;;
2610;SDS011;5612;51.134;17.058;2024-02-26T04:32:38;47.07;;;33.57;;
2610;SDS011;5612;51.134;17.058;2024-02-26T04:35:09;30.13;;;23.30;;
2610;SDS011;5612;51.134;17.058;2024-02-26T04:37:38;32.83;;;26.10;;
2610;SDS011;5612;51.134;17.058;2024-02-26T04:40:07;35.60;;;26.20;;
2610;SDS011;5612;51.134;17.058;2024-02-26T04:42:36;43.30;;;30.77;;
2610;SDS011;5612;51.134;17.058;2024-02-26T04:45:05;43.27;;;31.87;;
2610;SDS011;5612;51.134;17.058;2024-02-26T04:47:35;31.83;;;24.67;;
2610;SDS011;5612;51.134;17.058;2024-02-26T04:50:04;40.83;;;30.10;;
2610;SDS011;5612;51.134;17.058;2024-02-26T04:52:36;37.77;;;29.17;;
2610;SDS011;5612;51.134;17.058;2024-02-26T04:55:05;33.73;;;28.70;;
2610;SDS011;5612;51.134;17.058;2024-02-26T04:57:34;39.53;;;28.93;;
2610;SDS011;5612;51.134;17.058;2024-02-26T05:00:03;45.97;;;31.40;;
2610;SDS011;5612;51.134;17.058;2024-02-26T05:02:33;42.77;;;32.20;;
2610;SDS011;5612;51.134;17.058;2024-02-26T05:05:04;39.50;;;29.30;;
2610;SDS011;5612;51.134;17.058;2024-02-26T05:07:40;47.70;;;30.90;;
2610;SDS011;5612;51.134;17.058;2024-02-26T05:10:10;44.20;;;31.63;;
2610;SDS011;5612;51.134;17.058;2024-02-26T05:12:38;46.33;;;32.33;;
2610;SDS011;5612;51.134;17.058;2024-02-26T05:15:09;54.37;;;35.77;;
2610;SDS011;5612;51.134;17.058;2024-02-26T05:17:39;57.03;;;37.53;;
2610;SDS011;5612;51.134;17.058;2024-02-26T05:20:08;51.83;;;36.53;;
2610;SDS011;5612;51.134;17.058;2024-02-26T05:22:37;50.13;;;35.10;;
2610;SDS011;5612;51.134;17.058;2024-02-26T05:25:07;51.10;;;36.33;;
2610;SDS011;5612;51.134;17.058;2024-02-26T05:27:36;51.33;;;33.93;;
2610;SDS011;5612;51.134;17.058;2024-02-26T05:30:05;47.73;;;37.03;;
2610;SDS011;5612;51.134;17.058;2024-02-26T05:32:35;45.17;;;33.70;;
2610;SDS011;5612;51.134;17.058;2024-02-26T05:35:04;54.10;;;36.60;;
2610;SDS011;5612;51.134;17.058;2024-02-26T05:37:34;45.60;;;33.17;;
2610;SDS011;5612;51.134;17.058;2024-02-26T05:40:05;45.73;;;33.23;;
2610;SDS011;5612;51.134;17.058;2024-02-26T05:42:34;39.20;;;32.00;;
2610;SDS011;5612;51.134;17.058;2024-02-26T05:45:03;48.20;;;33.20;;
2610;SDS011;5612;51.134;17.058;2024-02-26T05:47:33;45.97;;;31.37;;
2610;SDS011;5612;51.134;17.058;2024-02-26T05:50:02;38.73;;;31.33;;
2610;SDS011;5612;51.134;17.058;2024-02-26T05:52:31;42.40;;;29.77;;
2610;SDS011;5612;51.134;17.058;2024-02-26T05:55:00;36.40;;;27.50;;
2610;SDS011;5612;51.134;17.058;2024-02-26T05:57:31;37.40;;;27.03;;
2610;SDS011;5612;51.134;17.058;2024-02-26T06:00:01;37.57;;;31.07;;
2610;SDS011;5612;51.134;17.058;2024-02-26T06:02:31;37.53;;;28.23;;
2610;SDS011;5612;51.134;17.058;2024-02-26T06:05:00;35.63;;;28.13;;
2610;SDS011;5612;51.134;17.058;2024-02-26T06:07:29;56.13;;;30.07;;
2610;SDS011;5612;51.134;17.058;2024-02-26T06:09:58;33.37;;;27.10;;
2610;SDS011;5612;51.134;17.058;2024-02-26T06:12:27;34.43;;;27.57;;
2610;SDS011;5612;51.134;17.058;2024-02-26T06:14:59;35.40;;;28.50;;
2610;SDS011;5612;51.134;17.058;2024-02-26T06:17:28;36.33;;;28.50;;
2610;SDS011;5612;51.134;17.058;2024-02-26T06:19:58;45.33;;;32.47;;
2610;SDS011;5612;51.134;17.058;2024-02-26T06:22:27;41.27;;;28.00;;
2610;SDS011;5612;51.134;17.058;2024-02-26T06:24:57;44.90;;;29.70;;
2610;SDS011;5612;51.134;17.058;2024-02-26T06:27:26;36.87;;;28.60;;
2610;SDS011;5612;51.134;17.058;2024-02-26T06:29:55;37.40;;;29.37;;
2610;SDS011;5612;51.134;17.058;2024-02-26T06:32:25;34.30;;;28.70;;
2610;SDS011;5612;51.134;17.058;2024-02-26T06:34:55;35.57;;;28.77;;
2610;SDS011;5612;51.134;17.058;2024-02-26T06:37:24;42.40;;;29.00;;
2610;SDS011;5612;51.134;17.058;2024-02-26T06:39:53;41.47;;;32.30;;
2610;SDS011;5612;51.134;17.058;2024-02-26T06:42:22;37.50;;;28.50;;
2610;SDS011;5612;51.134;17.058;2024-02-26T06:44:50;40.30;;;30.17;;
2610;SDS011;5612;51.134;17.058;2024-02-26T06:47:19;42.23;;;32.53;;
2610;SDS011;5612;51.134;17.058;2024-02-26T06:49:49;38.17;;;30.57;;
2610;SDS011;5612;51.134;17.058;2024-02-26T06:52:18;37.87;;;30.70;;
2610;SDS011;5612;51.134;17.058;2024-02-26T06:54:47;36.80;;;32.00;;
2610;SDS011;5612;51.134;17.058;2024-02-26T06:57:17;43.70;;;36.00;;
2610;SDS011;5612;51.134;17.058;2024-02-26T06:59:46;40.60;;;35.17;;
2610;SDS011;5612;51.134;17.058;2024-02-26T07:02:15;43.57;;;36.20;;
2610;SDS011;5612;51.134;17.058;2024-02-26T07:04:44;43.40;;;38.67;;
2610;SDS011;5612;51.134;17.058;2024-02-26T07:07:14;39.50;;;34.10;;
2610;SDS011;5612;51.134;17.058;2024-02-26T07:09:44;37.73;;;32.93;;
2610;SDS011;5612;51.134;17.058;2024-02-26T07:12:13;44.20;;;32.30;;
2610;SDS011;5612;51.134;17.058;2024-02-26T07:14:42;40.43;;;31.17;;
2610;SDS011;5612;51.134;17.058;2024-02-26T07:17:12;40.23;;;31.13;;
2610;SDS011;5612;51.134;17.058;2024-02-26T07:19:44;38.73;;;29.33;;
2610;SDS011;5612;51.134;17.058;2024-02-26T07:22:15;32.43;;;27.90;;
2610;SDS011;5612;51.134;17.058;2024-02-26T07:24:44;29.90;;;26.67;;
2610;SDS011;5612;51.134;17.058;2024-02-26T07:27:14;33.23;;;28.03;;
2610;SDS011;5612;51.134;17.058;2024-02-26T07:29:44;30.73;;;26.50;;
2610;SDS011;5612;51.134;17.058;2024-02-26T07:32:13;32.70;;;27.40;;
2610;SDS011;5612;51.134;17.058;2024-02-26T07:34:42;33.37;;;25.90;;
2610;SDS011;5612;51.134;17.058;2024-02-26T07:37:11;31.80;;;28.40;;
2610;SDS011;5612;51.134;17.058;2024-02-26T07:39:42;28.57;;;25.47;;
2610;SDS011;5612;51.134;17.058;2024-02-26T07:42:11;30.13;;;26.03;;
2610;SDS011;5612;51.134;17.058;2024-02-26T07:44:40;28.60;;;24.77;;
2610;SDS011;5612;51.134;17.058;2024-02-26T07:47:09;28.67;;;25.20;;
2610;SDS011;5612;51.134;17.058;2024-02-26T07:49:39;26.77;;;23.90;;
2610;SDS011;5612;51.134;17.058;2024-02-26T07:52:08;26.57;;;23.83;;
2610;SDS011;5612;51.134;17.058;2024-02-26T07:54:37;27.07;;;24.17;;
2610;SDS011;5612;51.134;17.058;2024-02-26T07:57:07;24.00;;;21.37;;
2610;SDS011;5612;51.134;17.058;2024-02-26T07:59:36;24.50;;;21.97;;
2610;SDS011;5612;51.134;17.058;2024-02-26T08:02:04;21.10;;;18.90;;
2610;SDS011;5612;51.134;17.058;2024-02-26T08:04:34;21.23;;;18.50;;
2610;SDS011;5612;51.134;17.058;2024-02-26T08:07:03;18.43;;;16.70;;
2610;SDS011;5612;51.134;17.058;2024-02-26T08:09:32;18.30;;;16.40;;
2610;SDS011;5612;51.134;17.058;2024-02-26T08:12:04;18.77;;;16.97;;
2610;SDS011;5612;51.134;17.058;2024-02-26T08:14:35;17.93;;;16.20;;
2610;SDS011;5612;51.134;17.058;2024-02-26T08:17:04;18.30;;;16.57;;
2610;SDS011;5612;51.134;17.058;2024-02-26T08:19:33;18.80;;;16.80;;
2610;SDS011;5612;51.134;17.058;2024-02-26T08:22:02;17.47;;;15.90;;
2610;SDS011;5612;51.134;17.058;2024-02-26T08:24:31;16.73;;;14.93;;
2610;SDS011;5612;51.134;17.058;2024-02-26T08:27:00;15.10;;;13.67;;
2610;SDS011;5612;51.134;17.058;2024-02-26T08:29:30;15.13;;;13.80;;
2610;SDS011;5612;51.134;17.058;2024-02-26T08:31:59;16.20;;;14.70;;
2610;SDS011;5612;51.134;17.058;2024-02-26T08:34:30;20.43;;;18.33;;
2610;SDS011;5612;51.134;17.058;2024-02-26T08:36:59;14.70;;;13.30;;
2610;SDS011;5612;51.134;17.058;2024-02-26T08:39:27;13.80;;;12.57;;
2610;SDS011;5612;51.134;17.058;2024-02-26T08:41:56;13.37;;;12.17;;
2610;SDS011;5612;51.134;17.058;2024-02-26T08:44:24;14.67;;;12.43;;
2610;SDS011;5612;51.134;17.058;2024-02-26T08:46:54;11.40;;;10.40;;
2610;SDS011;5612;51.134;17.058;2024-02-26T08:49:23;12.00;;;10.63;;
2610;SDS011;5612;51.134;17.058;2024-02-26T08:51:52;11.37;;;10.37;;
2610;SDS011;5612;51.134;17.058;2024-02-26T08:54:20;10.80;;;9.80;;
2610;SDS011;5612;51.134;17.058;2024-02-26T08:56:50;10.60;;;9.23;;
2610;SDS011;5612;51.134;17.058;2024-02-26T08:59:19;8.57;;;7.97;;
2610;SDS011;5612;51.134;17.058;2024-02-26T09:01:51;9.40;;;8.50;;
2610;SDS011;5612;51.134;17.058;2024-02-26T09:04:21;9.57;;;8.77;;
2610;SDS011;5612;51.134;17.058;2024-02-26T09:06:49;8.87;;;8.17;;
2610;SDS011;5612;51.134;17.058;2024-02-26T09:09:18;8.93;;;8.00;;
2610;SDS011;5612;51.134;17.058;2024-02-26T09:11:48;11.17;;;10.00;;
2610;SDS011;5612;51.134;17.058;2024-02-26T09:14:18;8.63;;;7.80;;
2610;SDS011;5612;51.134;17.058;2024-02-26T09:16:48;7.27;;;6.57;;
2610;SDS011;5612;51.134;17.058;2024-02-26T09:19:16;7.10;;;6.60;;
2610;SDS011;5612;51.134;17.058;2024-02-26T09:21:47;7.97;;;7.27;;
2610;SDS011;5612;51.134;17.058;2024-02-26T09:24:15;5.37;;;4.90;;
2610;SDS011;5612;51.134;17.058;2024-02-26T09:26:44;7.40;;;5.73;;
2610;SDS011;5612;51.134;17.058;2024-02-26T09:29:14;6.43;;;5.93;;
2610;SDS011;5612;51.134;17.058;2024-02-26T09:31:43;5.03;;;4.73;;
2610;SDS011;5612;51.134;17.058;2024-02-26T09:34:14;4.93;;;4.60;;
2610;SDS011;5612;51.134;17.058;2024-02-26T09:36:43;6.60;;;5.93;;
2610;SDS011;5612;51.134;17.058;2024-02-26T09:39:14;5.87;;;5.40;;
2610;SDS011;5612;51.134;17.058;2024-02-26T09:41:48;6.27;;;5.20;;
2610;SDS011;5612;51.134;17.058;2024-02-26T09:44:18;9.40;;;6.07;;
2610;SDS011;5612;51.134;17.058;2024-02-26T09:46:48;6.07;;;5.33;;
2610;SDS011;5612;51.134;17.058;2024-02-26T09:49:18;6.30;;;5.70;;
2610;SDS011;5612;51.134;17.058;2024-02-26T09:51:47;6.00;;;5.37;;
2610;SDS011;5612;51.134;17.058;2024-02-26T09:54:19;6.77;;;5.73;;
2610;SDS011;5612;51.134;17.058;2024-02-26T09:56:48;5.80;;;5.30;;
2610;SDS011;5612;51.134;17.058;2024-02-26T09:59:29;5.30;;;4.80;;
2610;SDS011;5612;51.134;17.058;2024-02-26T10:02:08;6.67;;;6.07;;
2610;SDS011;5612;51.134;17.058;2024-02-26T10:04:39;7.73;;;5.63;;
2610;SDS011;5612;51.134;17.058;2024-02-26T10:07:14;5.30;;;4.87;;
2610;SDS011;5612;51.134;17.058;2024-02-26T10:09:45;5.53;;;5.03;;
2610;SDS011;5612;51.134;17.058;2024-02-26T10:12:14;5.57;;;5.13;;
2610;SDS011;5612;51.134;17.058;2024-02-26T10:14:44;4.73;;;4.27;;
2610;SDS011;5612;51.134;17.058;2024-02-26T10:17:12;5.03;;;4.53;;
2610;SDS011;5612;51.134;17.058;2024-02-26T10:19:41;6.07;;;4.37;;
2610;SDS011;5612;51.134;17.058;2024-02-26T10:22:10;6.37;;;4.87;;
2610;SDS011;5612;51.134;17.058;2024-02-26T10:24:39;5.60;;;4.97;;
2610;SDS011;5612;51.134;17.058;2024-02-26T10:27:09;4.87;;;3.90;;
2610;SDS011;5612;51.134;17.058;2024-02-26T10:29:38;7.93;;;4.53;;
2610;SDS011;5612;51.134;17.058;2024-02-26T10:32:08;4.97;;;4.47;;
2610;SDS011;5612;51.134;17.058;2024-02-26T10:34:38;5.80;;;5.30;;
2610;SDS011;5612;51.134;17.058;2024-02-26T10:37:09;6.93;;;4.37;;
2610;SDS011;5612;51.134;17.058;2024-02-26T10:39:38;5.13;;;4.73;;
2610;SDS011;5612;51.134;17.058;2024-02-26T10:42:06;6.57;;;5.73;;
2610;SDS011;5612;51.134;17.058;2024-02-26T10:44:44;4.90;;;4.50;;
2610;SDS011;5612;51.134;17.058;2024-02-26T10:47:15;5.27;;;4.77;;
2610;SDS011;5612;51.134;17.058;2024-02-26T10:49:47;6.30;;;5.70;;
2610;SDS011;5612;51.134;17.058;2024-02-26T10:52:17;5.63;;;5.10;;
2610;SDS011;5612;51.134;17.058;2024-02-26T10:54:49;6.93;;;4.47;;
2610;SDS011;5612;51.134;17.058;2024-02-26T10:57:24;6.97;;;4.70;;
2610;SDS011;5612;51.134;17.058;2024-02-26T10:59:54;6.43;;;5.83;;
2610;SDS011;5612;51.134;17.058;2024-02-26T11:02:23;5.60;;;5.20;;
2610;SDS011;5612;51.134;17.058;2024-02-26T11:04:53;7.97;;;5.63;;
2610;SDS011;5612;51.134;17.058;2024-02-26T11:07:22;5.83;;;5.23;;
2610;SDS011;5612;51.134;17.058;2024-02-26T11:09:51;5.40;;;5.00;;
2610;SDS011;5612;51.134;17.058;2024-02-26T11:12:21;6.30;;;5.70;;
2610;SDS011;5612;51.134;17.058;2024-02-26T11:14:53;6.17;;;5.10;;
2610;SDS011;5612;51.134;17.058;2024-02-26T11:17:26;5.20;;;4.70;;
2610;SDS011;5612;51.134;17.058;2024-02-26T11:19:59;5.00;;;4.60;;
2610;SDS011;5612;51.134;17.058;2024-02-26T11:22:29;6.10;;;5.50;;
2610;SDS011;5612;51.134;17.058;2024-02-26T11:24:59;4.97;;;4.53;;
2610;SDS011;5612;51.134;17.058;2024-02-26T11:27:30;7.40;;;5.53;;
2610;SDS011;5612;51.134;17.058;2024-02-26T11:30:03;6.37;;;5.27;;
2610;SDS011;5612;51.134;17.058;2024-02-26T11:32:37;7.10;;;5.40;;
2610;SDS011;5612;51.134;17.058;2024-02-26T11:35:10;5.57;;;4.20;;
2610;SDS011;5612;51.134;17.058;2024-02-26T11:37:41;6.03;;;5.27;;
2610;SDS011;5612;51.134;17.058;2024-02-26T11:40:20;5.03;;;4.63;;
2610;SDS011;5612;51.134;17.058;2024-02-26T11:42:53;4.20;;;3.90;;
2610;SDS011;5612;51.134;17.058;2024-02-26T11:48:26;3.50;;;3.20;;
2610;SDS011;5612;51.134;17.058;2024-02-26T11:50:57;3.07;;;2.87;;
2610;SDS011;5612;51.134;17.058;2024-02-26T11:53:26;3.93;;;2.63;;
2610;SDS011;5612;51.134;17.058;2024-02-26T11:58:58;5.67;;;3.20;;
2610;SDS011;5612;51.134;17.058;2024-02-26T12:01:43;3.87;;;3.57;;
2610;SDS011;5612;51.134;17.058;2024-02-26T12:04:18;4.50;;;2.90;;
2610;SDS011;5612;51.134;17.058;2024-02-26T12:06:50;3.03;;;2.83;;
2610;SDS011;5612;51.134;17.058;2024-02-26T12:09:35;3.63;;;3.23;;
2610;SDS011;5612;51.134;17.058;2024-02-26T12:12:06;3.90;;;2.83;;
2610;SDS011;5612;51.134;17.058;2024-02-26T12:14:40;3.93;;;3.13;;
2610;SDS011;5612;51.134;17.058;2024-02-26T12:17:20;3.30;;;3.00;;
2610;SDS011;5612;51.134;17.058;2024-02-26T12:19:50;3.60;;;2.93;;
2610;SDS011;5612;51.134;17.058;2024-02-26T12:22:20;3.80;;;3.37;;
2610;SDS011;5612;51.134;17.058;2024-02-26T12:24:57;4.40;;;2.80;;
2610;SDS011;5612;51.134;17.058;2024-02-26T12:27:27;4.03;;;2.63;;
2610;SDS011;5612;51.134;17.058;2024-02-26T12:29:58;3.70;;;2.60;;
2610;SDS011;5612;51.134;17.058;2024-02-26T12:32:26;3.80;;;3.50;;
2610;SDS011;5612;51.134;17.058;2024-02-26T12:34:55;2.90;;;2.70;;
2610;SDS011;5612;51.134;17.058;2024-02-26T12:37:25;2.40;;;2.20;;
2610;SDS011;5612;51.134;17.058;2024-02-26T12:39:54;2.70;;;2.50;;
2610;SDS011;5612;51.134;17.058;2024-02-26T12:42:22;3.83;;;2.60;;
2610;SDS011;5612;51.134;17.058;2024-02-26T12:44:51;2.80;;;2.47;;
2610;SDS011;5612;51.134;17.058;2024-02-26T12:47:22;4.43;;;3.27;;
2610;SDS011;5612;51.134;17.058;2024-02-26T12:49:51;3.47;;;3.17;;
2610;SDS011;5612;51.134;17.058;2024-02-26T12:52:20;3.20;;;3.00;;
2610;SDS011;5612;51.134;17.058;2024-02-26T12:54:49;3.00;;;2.80;;
2610;SDS011;5612;51.134;17.058;2024-02-26T12:57:18;2.43;;;2.33;;
2610;SDS011;5612;51.134;17.058;2024-02-26T12:59:47;3.50;;;3.30;;
2610;SDS011;5612;51.134;17.058;2024-02-26T13:02:16;4.27;;;3.60;;
2610;SDS011;5612;51.134;17.058;2024-02-26T13:04:46;3.80;;;3.50;;
2610;SDS011;5612;51.134;17.058;2024-02-26T13:07:18;4.27;;;3.97;;
2610;SDS011;5612;51.134;17.058;2024-02-26T13:09:48;3.13;;;2.93;;
2610;SDS011;5612;51.134;17.058;2024-02-26T13:12:17;3.33;;;3.13;;
2610;SDS011;5612;51.134;17.058;2024-02-26T13:14:45;10.23;;;3.90;;
2610;SDS011;5612;51.134;17.058;2024-02-26T13:17:14;3.07;;;2.87;;
2610;SDS011;5612;51.134;17.058;2024-02-26T13:19:53;3.47;;;3.17;;
2610;SDS011;5612;51.134;17.058;2024-02-26T13:22:22;3.73;;;3.53;;
2610;SDS011;5612;51.134;17.058;2024-02-26T13:24:54;6.83;;;3.83;;
2610;SDS011;5612;51.134;17.058;2024-02-26T13:27:23;3.70;;;3.40;;
2610;SDS011;5612;51.134;17.058;2024-02-26T13:30:05;4.40;;;3.90;;
2610;SDS011;5612;51.134;17.058;2024-02-26T13:32:38;4.70;;;3.47;;
2610;SDS011;5612;51.134;17.058;2024-02-26T13:35:11;3.10;;;2.90;;
2610;SDS011;5612;51.134;17.058;2024-02-26T13:37:40;3.40;;;3.10;;
2610;SDS011;5612;51.134;17.058;2024-02-26T13:40:09;3.20;;;2.90;;
2610;SDS011;5612;51.134;17.058;2024-02-26T13:42:39;4.10;;;3.63;;
2610;SDS011;5612;51.134;17.058;2024-02-26T13:45:08;7.47;;;4.03;;
2610;SDS011;5612;51.134;17.058;2024-02-26T13:47:37;4.30;;;3.60;;
2610;SDS011;5612;51.134;17.058;2024-02-26T13:50:07;4.00;;;3.67;;
2610;SDS011;5612;51.134;17.058;2024-02-26T13:52:37;4.47;;;4.07;;
2610;SDS011;5612;51.134;17.058;2024-02-26T13:55:06;6.33;;;4.10;;
2610;SDS011;5612;51.134;17.058;2024-02-26T13:57:35;3.70;;;3.40;;
2610;SDS011;5612;51.134;17.058;2024-02-26T14:00:05;4.37;;;4.07;;
2610;SDS011;5612;51.134;17.058;2024-02-26T14:02:36;5.17;;;4.13;;
2610;SDS011;5612;51.134;17.058;2024-02-26T14:05:05;5.83;;;4.50;;
2610;SDS011;5612;51.134;17.058;2024-02-26T14:07:34;5.13;;;2.90;;
2610;SDS011;5612;51.134;17.058;2024-02-26T14:10:05;3.40;;;3.20;;
2610;SDS011;5612;51.134;17.058;2024-02-26T14:12:35;4.63;;;3.83;;
2610;SDS011;5612;51.134;17.058;2024-02-26T14:15:05;3.90;;;3.60;;
2610;SDS011;5612;51.134;17.058;2024-02-26T14:17:36;3.80;;;3.50;;
2610;SDS011;5612;51.134;17.058;2024-02-26T14:20:05;4.60;;;4.20;;
2610;SDS011;5612;51.134;17.058;2024-02-26T14:22:36;3.13;;;2.90;;
2610;SDS011;5612;51.134;17.058;2024-02-26T14:25:06;4.27;;;3.87;;
2610;SDS011;5612;51.134;17.058;2024-02-26T14:27:38;3.57;;;3.27;;
2610;SDS011;5612;51.134;17.058;2024-02-26T14:30:07;3.57;;;3.27;;
2610;SDS011;5612;51.134;17.058;2024-02-26T14:32:37;3.40;;;3.10;;
2610;SDS011;5612;51.134;17.058;2024-02-26T14:35:08;3.87;;;3.47;;
2610;SDS011;5612;51.134;17.058;2024-02-26T14:37:43;4.47;;;4.07;;
2610;SDS011;5612;51.134;17.058;2024-02-26T14:40:16;6.27;;;3.93;;
2610;SDS011;5612;51.134;17.058;2024-02-26T14:42:45;5.47;;;4.67;;
2610;SDS011;5612;51.134;17.058;2024-02-26T14:45:14;4.20;;;3.87;;
2610;SDS011;5612;51.134;17.058;2024-02-26T14:47:43;3.83;;;3.53;;
2610;SDS011;5612;51.134;17.058;2024-02-26T14:50:13;5.20;;;3.50;;
2610;SDS011;5612;51.134;17.058;2024-02-26T14:52:42;3.90;;;3.40;;
2610;SDS011;5612;51.134;17.058;2024-02-26T14:55:11;4.60;;;3.70;;
2610;SDS011;5612;51.134;17.058;2024-02-26T14:57:41;3.63;;;3.33;;
2610;SDS011;5612;51.134;17.058;2024-02-26T15:00:10;4.00;;;3.60;;
2610;SDS011;5612;51.134;17.058;2024-02-26T15:02:40;6.70;;;3.60;;
2610;SDS011;5612;51.134;17.058;2024-02-26T15:05:08;5.00;;;4.60;;
2610;SDS011;5612;51.134;17.058;2024-02-26T15:07:38;3.90;;;3.60;;